Time;durP1;ratioP1;P1;durP2;ratioP2;P2;SDS_P1;SDS_P2;PMS_P1;PMS_P2;Temp;Humidity;BMP_temperature;BMP_pressure;BME280_temperature;BME280_humidity;BME280_pressure;Samples;Min_cycle;Max_cycle;Signal;HPM_P1;HPM_P2
2023/07/20 00:00:30;;;;;;;4.70;2.33;;;17.50;99.90;;;;;;4938690;29;20243;-77
2023/07/20 00:03:12;;;;;;;3.75;2.50;;;17.50;99.90;;;;;;4937595;29;20183;-77
2023/07/20 00:05:39;;;;;;;3.58;2.28;;;17.50;99.90;;;;;;4939227;29;20199;-77
2023/07/20 00:08:05;;;;;;;3.35;2.40;;;17.50;99.90;;;;;;4922198;29;20187;-77
2023/07/20 00:10:30;;;;;;;3.33;2.40;;;17.50;99.90;;;;;;4938024;29;20503;-77
2023/07/20 00:12:56;;;;;;;4.95;2.80;;;17.50;99.90;;;;;;4937935;29;20211;-77
2023/07/20 00:15:22;;;;;;;3.47;2.30;;;17.50;99.90;;;;;;4938163;29;20262;-77
2023/07/20 00:17:48;;;;;;;4.05;2.80;;;17.50;99.90;;;;;;4940881;28;20187;-77
2023/07/20 00:20:13;;;;;;;5.13;2.88;;;17.50;99.90;;;;;;4939014;29;20206;-77
2023/07/20 00:22:39;;;;;;;3.55;3.00;;;17.50;99.90;;;;;;4937121;29;20591;-77
2023/07/20 00:25:05;;;;;;;6.18;3.50;;;17.50;99.90;;;;;;4938328;29;20542;-77
2023/07/20 00:27:31;;;;;;;5.10;3.08;;;17.50;99.90;;;;;;4940371;29;20194;-77
2023/07/20 00:29:57;;;;;;;3.03;2.72;;;17.50;99.90;;;;;;4937888;29;20218;-78
2023/07/20 00:32:23;;;;;;;4.88;2.70;;;17.40;99.90;;;;;;4937014;29;20270;-78
2023/07/20 00:34:49;;;;;;;3.92;2.70;;;17.40;99.90;;;;;;4937061;28;20194;-77
2023/07/20 00:37:14;;;;;;;4.05;3.00;;;17.50;99.90;;;;;;4936675;29;20235;-78
2023/07/20 00:39:40;;;;;;;3.95;2.95;;;17.40;99.90;;;;;;4937192;29;20190;-78
2023/07/20 00:42:06;;;;;;;6.30;3.20;;;17.40;99.90;;;;;;4937761;29;20183;-77
2023/07/20 00:44:32;;;;;;;4.88;2.85;;;17.40;99.90;;;;;;4938538;29;20576;-78
2023/07/20 00:46:59;;;;;;;3.47;2.70;;;17.40;99.90;;;;;;4941055;29;20190;-77
2023/07/20 00:49:25;;;;;;;4.80;2.80;;;17.30;99.90;;;;;;4940923;29;20375;-77
2023/07/20 00:51:51;;;;;;;4.20;2.83;;;17.40;99.90;;;;;;4939882;29;20219;-78
2023/07/20 00:54:17;;;;;;;4.00;2.92;;;17.30;99.90;;;;;;4923395;29;20697;-77
2023/07/20 00:56:43;;;;;;;3.35;2.67;;;17.30;99.90;;;;;;4941867;29;20510;-78
2023/07/20 00:59:10;;;;;;;4.60;2.78;;;17.20;99.90;;;;;;4940920;29;20187;-77
2023/07/20 01:01:36;;;;;;;3.38;2.53;;;17.20;99.90;;;;;;4940353;29;20226;-77
2023/07/20 01:04:01;;;;;;;3.83;2.83;;;17.20;99.90;;;;;;4941723;29;20187;-78
2023/07/20 01:06:42;;;;;;;2.97;2.50;;;17.20;99.90;;;;;;4940598;29;20232;-77
2023/07/20 01:09:23;;;;;;;3.92;2.72;;;17.20;99.90;;;;;;4942548;29;20195;-76
2023/07/20 01:11:59;;;;;;;3.88;2.50;;;17.10;99.90;;;;;;4939064;29;20178;-76
2023/07/20 01:14:25;;;;;;;2.67;2.30;;;17.10;99.90;;;;;;4936428;29;20246;-76
2023/07/20 01:16:52;;;;;;;3.55;2.50;;;17.00;99.90;;;;;;4920353;29;20226;-77
2023/07/20 01:19:18;;;;;;;2.25;2.00;;;17.00;99.90;;;;;;4936184;29;20194;-78
2023/07/20 01:22:01;;;;;;;4.25;2.70;;;17.10;99.90;;;;;;4937596;29;20186;-77
2023/07/20 01:24:40;;;;;;;3.00;2.60;;;17.00;99.90;;;;;;4937462;29;20327;-77
2023/07/20 01:27:44;;;;;;;4.72;2.47;;;17.00;99.90;;;;;;4937394;29;20535;-78
2023/07/20 01:30:27;;;;;;;4.10;2.30;;;16.90;99.90;;;;;;4937375;29;20235;-78
2023/07/20 01:32:56;;;;;;;2.80;2.35;;;16.90;99.90;;;;;;4936422;28;20175;-78
2023/07/20 01:35:27;;;;;;;2.30;2.00;;;16.90;99.90;;;;;;4936792;29;20230;-77
2023/07/20 01:37:53;;;;;;;4.13;2.40;;;16.80;99.90;;;;;;4935880;29;20223;-77
2023/07/20 01:40:20;;;;;;;4.88;2.70;;;16.80;99.90;;;;;;4936760;29;20263;-76
2023/07/20 01:42:47;;;;;;;3.65;2.35;;;16.80;99.90;;;;;;4925197;29;20233;-76
2023/07/20 01:45:13;;;;;;;4.93;2.40;;;16.80;99.90;;;;;;4938092;29;20175;-76
2023/07/20 01:47:38;;;;;;;4.22;2.58;;;16.80;99.90;;;;;;4941118;29;20690;-76
2023/07/20 01:50:05;;;;;;;4.32;2.53;;;16.70;99.90;;;;;;4937702;29;20690;-77
2023/07/20 01:52:32;;;;;;;2.65;2.20;;;16.70;99.90;;;;;;4937161;28;20696;-77
2023/07/20 01:54:58;;;;;;;5.05;2.35;;;16.70;99.90;;;;;;4938582;29;20172;-77
2023/07/20 01:57:24;;;;;;;5.15;2.53;;;16.70;99.90;;;;;;4946224;29;20239;-79
2023/07/20 01:59:49;;;;;;;3.53;2.22;;;16.70;99.90;;;;;;4930074;29;20655;-76
2023/07/20 02:02:15;;;;;;;4.78;3.08;;;16.60;99.90;;;;;;4946057;28;20656;-77
2023/07/20 02:04:41;;;;;;;4.18;2.63;;;16.60;99.90;;;;;;4946575;29;20243;-76
2023/07/20 02:07:07;;;;;;;4.20;2.22;;;16.60;99.90;;;;;;4929137;29;20644;-77
2023/07/20 02:09:32;;;;;;;6.65;2.58;;;16.50;99.90;;;;;;4944231;28;20218;-76
2023/07/20 02:11:58;;;;;;;4.05;2.10;;;16.50;99.90;;;;;;4943726;29;20187;-77
2023/07/20 02:14:24;;;;;;;4.93;2.20;;;16.40;99.90;;;;;;4944398;29;20537;-76
2023/07/20 02:16:57;;;;;;;2.85;2.15;;;16.40;99.90;;;;;;4941000;29;20274;-76
2023/07/20 02:19:26;;;;;;;2.60;1.75;;;16.40;99.90;;;;;;4939258;29;20190;-78
2023/07/20 02:21:52;;;;;;;4.55;1.83;;;16.30;99.90;;;;;;4921106;29;20205;-76
2023/07/20 02:24:19;;;;;;;3.92;1.75;;;16.30;99.90;;;;;;4936995;29;20184;-77
2023/07/20 02:26:45;;;;;;;4.50;1.90;;;16.40;99.90;;;;;;4937848;29;20266;-77
2023/07/20 02:29:11;;;;;;;3.75;1.80;;;16.40;99.90;;;;;;4936982;29;20215;-78
2023/07/20 02:31:39;;;;;;;2.00;1.75;;;16.30;99.90;;;;;;4920831;29;20191;-76
2023/07/20 02:34:06;;;;;;;3.10;1.70;;;16.30;99.90;;;;;;4935494;28;20194;-77
2023/07/20 02:36:35;;;;;;;4.93;1.80;;;16.30;99.90;;;;;;4918961;29;20234;-76
2023/07/20 02:39:03;;;;;;;3.50;1.65;;;16.20;99.90;;;;;;4936111;29;20179;-76
2023/07/20 02:41:31;;;;;;;6.55;1.75;;;16.30;99.90;;;;;;4936213;29;20242;-77
2023/07/20 02:43:57;;;;;;;3.25;1.60;;;16.20;99.90;;;;;;4936338;29;20253;-78
2023/07/20 02:46:23;;;;;;;4.88;2.00;;;16.20;99.90;;;;;;4934565;29;20190;-77
2023/07/20 02:48:48;;;;;;;2.58;1.95;;;16.20;99.90;;;;;;4936572;29;20306;-79
2023/07/20 02:51:14;;;;;;;6.47;2.03;;;16.20;99.90;;;;;;4935098;29;20196;-77
2023/07/20 02:53:41;;;;;;;5.53;1.85;;;16.10;99.90;;;;;;4936096;29;20258;-78
2023/07/20 02:56:07;;;;;;;3.58;2.08;;;16.10;99.90;;;;;;4934581;29;20191;-77
2023/07/20 02:58:37;;;;;;;4.82;1.90;;;16.10;99.90;;;;;;4934320;29;20323;-77
2023/07/20 03:01:03;;;;;;;3.42;1.92;;;16.10;99.90;;;;;;4934681;29;20267;-76
2023/07/20 03:03:29;;;;;;;3.30;1.98;;;16.10;99.90;;;;;;4934552;28;20215;-76
2023/07/20 03:05:55;;;;;;;4.25;2.30;;;16.10;99.90;;;;;;4934809;28;20191;-77
2023/07/20 03:08:22;;;;;;;3.55;2.15;;;16.10;99.90;;;;;;4918507;29;20219;-77
2023/07/20 03:10:47;;;;;;;3.65;2.10;;;16.10;99.90;;;;;;4935093;29;20251;-78
2023/07/20 03:13:14;;;;;;;5.15;2.20;;;16.00;99.90;;;;;;4918555;29;20187;-77
2023/07/20 03:15:40;;;;;;;4.15;2.15;;;16.00;99.90;;;;;;4934275;29;20636;-76
2023/07/20 03:18:06;;;;;;;3.65;2.38;;;16.00;99.90;;;;;;4937958;29;20176;-76
2023/07/20 03:20:32;;;;;;;3.00;2.70;;;16.00;99.90;;;;;;4938314;29;20183;-76
2023/07/20 03:22:58;;;;;;;4.43;2.80;;;16.00;99.90;;;;;;4937634;29;20244;-78
2023/07/20 03:25:24;;;;;;;4.20;2.80;;;15.90;99.90;;;;;;4937710;29;20554;-78
2023/07/20 03:27:50;;;;;;;4.30;3.05;;;15.90;99.90;;;;;;4938839;29;20593;-77
2023/07/20 03:30:16;;;;;;;8.48;3.10;;;15.80;99.90;;;;;;4937151;28;20226;-76
2023/07/20 03:32:42;;;;;;;6.03;3.08;;;15.80;99.90;;;;;;4937738;29;20176;-78
2023/07/20 03:35:08;;;;;;;5.43;3.10;;;15.80;99.90;;;;;;4921313;29;20191;-77
2023/07/20 03:37:35;;;;;;;3.80;3.20;;;15.80;99.90;;;;;;4937932;28;20321;-76
2023/07/20 03:40:02;;;;;;;5.68;3.30;;;15.70;99.90;;;;;;4937842;29;20283;-75
2023/07/20 03:42:28;;;;;;;5.75;3.22;;;15.70;99.90;;;;;;4937322;29;20199;-77
2023/07/20 03:44:54;;;;;;;3.95;3.03;;;15.60;99.90;;;;;;4937555;29;20187;-75
2023/07/20 03:47:20;;;;;;;3.40;3.03;;;15.60;99.90;;;;;;4921469;29;20187;-79
2023/07/20 03:49:46;;;;;;;7.07;3.20;;;15.60;99.90;;;;;;4938682;29;20237;-77
2023/07/20 03:52:12;;;;;;;4.97;3.33;;;15.50;99.90;;;;;;4938032;29;20183;-75
2023/07/20 03:54:38;;;;;;;6.78;3.30;;;15.50;99.90;;;;;;4922220;29;20274;-77
2023/07/20 03:57:04;;;;;;;8.52;3.13;;;15.50;99.90;;;;;;4937131;29;20182;-77
2023/07/20 03:59:29;;;;;;;7.00;3.80;;;15.50;99.90;;;;;;4936995;28;20254;-77
2023/07/20 04:01:55;;;;;;;5.15;3.20;;;15.50;99.90;;;;;;4921356;29;20191;-78
2023/07/20 04:04:21;;;;;;;5.90;3.25;;;15.40;99.90;;;;;;4937087;29;20180;-77
2023/07/20 04:06:47;;;;;;;6.05;3.00;;;15.40;99.90;;;;;;4936721;29;20192;-77
2023/07/20 04:09:13;;;;;;;8.30;3.30;;;15.40;99.90;;;;;;4937965;29;20218;-78
2023/07/20 04:11:39;;;;;;;7.18;2.88;;;15.40;99.90;;;;;;4921733;29;20179;-78
2023/07/20 04:14:05;;;;;;;3.80;3.05;;;15.40;99.90;;;;;;4937144;29;20191;-78
2023/07/20 04:16:30;;;;;;;6.47;3.00;;;15.40;99.90;;;;;;4937823;29;20179;-77
2023/07/20 04:18:56;;;;;;;3.55;2.63;;;15.40;99.90;;;;;;4937673;29;20218;-78
2023/07/20 04:21:23;;;;;;;6.20;2.70;;;15.40;99.90;;;;;;4938426;29;20179;-81
2023/07/20 04:23:48;;;;;;;3.25;2.67;;;15.40;99.90;;;;;;4920840;29;20186;-75
2023/07/20 04:26:14;;;;;;;7.93;2.42;;;15.40;99.90;;;;;;4921463;29;20184;-75
2023/07/20 04:28:42;;;;;;;8.15;3.20;;;15.50;99.90;;;;;;4919654;29;20223;-78
2023/07/20 04:31:12;;;;;;;3.55;2.78;;;15.50;99.90;;;;;;4921122;29;20191;-76
2023/07/20 04:33:38;;;;;;;3.35;2.53;;;15.50;99.90;;;;;;4920365;29;20190;-79
2023/07/20 04:36:04;;;;;;;4.55;2.63;;;15.50;99.90;;;;;;4936081;29;20684;-78
2023/07/20 04:38:34;;;;;;;3.67;2.78;;;15.50;99.90;;;;;;4936239;28;20246;-78
2023/07/20 04:41:14;;;;;;;4.90;2.30;;;15.50;99.90;;;;;;4936846;28;20187;-79
2023/07/20 04:43:44;;;;;;;4.78;2.60;;;15.50;99.90;;;;;;4920768;29;20187;-75
2023/07/20 04:46:11;;;;;;;4.78;2.30;;;15.50;99.90;;;;;;4920627;29;20632;-77
2023/07/20 04:48:37;;;;;;;5.22;2.60;;;15.50;99.90;;;;;;4936071;29;20678;-78
2023/07/20 04:51:03;;;;;;;3.90;2.40;;;15.50;99.90;;;;;;4935982;29;20210;-78
2023/07/20 04:53:30;;;;;;;5.50;2.45;;;15.60;99.90;;;;;;4936894;29;20640;-78
2023/07/20 04:55:56;;;;;;;5.50;2.28;;;15.60;99.90;;;;;;4935802;29;20278;-77
2023/07/20 04:58:24;;;;;;;4.25;2.30;;;15.60;99.90;;;;;;4920281;29;20666;-78
2023/07/20 05:00:51;;;;;;;3.95;2.30;;;15.60;99.90;;;;;;4936043;28;20191;-77
2023/07/20 05:03:17;;;;;;;4.40;2.17;;;15.70;99.90;;;;;;4935705;29;20632;-76
2023/07/20 05:05:44;;;;;;;3.78;2.00;;;15.70;99.90;;;;;;4935944;29;20175;-78
2023/07/20 05:08:10;;;;;;;6.60;2.70;;;15.70;99.90;;;;;;4936051;29;20179;-77
2023/07/20 05:10:36;;;;;;;5.93;2.40;;;15.70;99.90;;;;;;4936888;29;20183;-78
2023/07/20 05:13:02;;;;;;;4.13;2.17;;;15.80;99.90;;;;;;4919792;29;20183;-78
2023/07/20 05:15:28;;;;;;;3.13;2.10;;;15.80;99.90;;;;;;4937259;29;20219;-78
2023/07/20 05:17:55;;;;;;;5.60;2.30;;;15.80;99.90;;;;;;4919902;29;20278;-78
2023/07/20 05:20:21;;;;;;;4.15;2.05;;;15.90;99.90;;;;;;4919936;29;20558;-79
2023/07/20 05:22:48;;;;;;;3.88;2.13;;;15.90;99.90;;;;;;4904114;29;20195;-80
2023/07/20 05:25:17;;;;;;;3.55;2.15;;;16.00;99.90;;;;;;4936768;29;20636;-78
2023/07/20 05:27:42;;;;;;;8.93;2.20;;;16.00;99.90;;;;;;4936362;29;20187;-78
2023/07/20 05:30:08;;;;;;;7.15;2.20;;;16.00;99.90;;;;;;4935014;29;20218;-76
2023/07/20 05:32:34;;;;;;;5.50;2.40;;;16.00;99.90;;;;;;4935644;29;20332;-79
2023/07/20 05:35:00;;;;;;;5.53;2.15;;;16.10;99.90;;;;;;4936692;29;20210;-77
2023/07/20 05:37:26;;;;;;;6.70;2.25;;;16.10;99.90;;;;;;4934884;29;20238;-77
2023/07/20 05:39:51;;;;;;;4.53;1.98;;;16.20;99.90;;;;;;4936281;29;20668;-77
2023/07/20 05:42:17;;;;;;;4.93;1.77;;;16.20;99.90;;;;;;4936477;29;20187;-77
2023/07/20 05:44:43;;;;;;;6.47;2.10;;;16.20;99.90;;;;;;4935189;29;20193;-77
2023/07/20 05:47:09;;;;;;;4.35;2.25;;;16.30;99.90;;;;;;4935840;29;20191;-79
2023/07/20 05:49:35;;;;;;;6.65;2.50;;;16.30;99.90;;;;;;4935631;29;20251;-80
2023/07/20 05:52:01;;;;;;;4.57;1.92;;;16.30;99.90;;;;;;4934697;29;20194;-78
2023/07/20 05:54:27;;;;;;;5.05;1.60;;;16.40;99.90;;;;;;4936101;29;20184;-80
2023/07/20 05:56:53;;;;;;;4.45;2.10;;;16.40;99.90;;;;;;4919067;29;20195;-78
2023/07/20 05:59:19;;;;;;;8.40;2.00;;;16.40;99.90;;;;;;4935551;29;20188;-77
2023/07/20 06:01:48;;;;;;;8.00;1.92;;;16.50;99.90;;;;;;4935449;29;20616;-78
2023/07/20 06:04:14;;;;;;;5.43;1.80;;;16.60;99.90;;;;;;4935891;29;20557;-77
2023/07/20 06:06:40;;;;;;;4.63;1.70;;;16.60;99.90;;;;;;4936010;29;20262;-77
2023/07/20 06:09:09;;;;;;;5.55;2.17;;;16.60;99.90;;;;;;4934646;29;20290;-78
2023/07/20 06:11:36;;;;;;;2.85;1.50;;;16.70;99.90;;;;;;4935464;29;20533;-78
2023/07/20 06:14:02;;;;;;;3.65;1.77;;;16.80;99.90;;;;;;4936122;29;20191;-79
2023/07/20 06:16:27;;;;;;;4.50;1.42;;;16.80;99.90;;;;;;4934640;29;20179;-79
2023/07/20 06:18:53;;;;;;;4.20;1.67;;;16.90;99.90;;;;;;4937231;29;20187;-78
2023/07/20 06:21:19;;;;;;;7.03;1.75;;;16.90;99.90;;;;;;4919086;29;20639;-78
2023/07/20 06:23:46;;;;;;;6.15;1.60;;;16.90;99.90;;;;;;4935859;29;20586;-80
2023/07/20 06:26:11;;;;;;;4.05;1.40;;;17.00;99.90;;;;;;4934868;29;20171;-79
2023/07/20 06:28:37;;;;;;;4.20;1.65;;;17.10;99.90;;;;;;4935115;29;20240;-78
2023/07/20 06:31:03;;;;;;;6.50;1.70;;;17.20;99.90;;;;;;4935686;29;20624;-84
2023/07/20 06:33:29;;;;;;;6.60;1.48;;;17.20;99.90;;;;;;4934680;29;20599;-76
2023/07/20 06:35:56;;;;;;;4.80;1.75;;;17.30;99.90;;;;;;4934582;29;20175;-78
2023/07/20 06:38:23;;;;;;;7.07;1.52;;;17.40;99.90;;;;;;4935299;29;20246;-79
2023/07/20 06:40:49;;;;;;;5.53;2.00;;;17.40;99.90;;;;;;4935285;29;20188;-77
2023/07/20 06:43:16;;;;;;;3.38;1.58;;;17.50;99.90;;;;;;4935758;29;20211;-77
2023/07/20 06:45:42;;;;;;;5.28;1.75;;;17.60;99.90;;;;;;4935540;29;20194;-76
2023/07/20 06:48:07;;;;;;;2.97;1.58;;;17.60;99.90;;;;;;4918549;29;20270;-76
2023/07/20 06:50:33;;;;;;;8.40;1.83;;;17.70;99.90;;;;;;4934285;29;20191;-78
2023/07/20 06:53:00;;;;;;;6.97;1.98;;;17.80;99.90;;;;;;4938165;29;20207;-77
2023/07/20 06:55:26;;;;;;;5.63;1.90;;;17.80;99.90;;;;;;4939414;29;20207;-78
2023/07/20 06:57:52;;;;;;;6.88;2.03;;;17.90;99.90;;;;;;4922362;29;20214;-77
2023/07/20 07:00:18;;;;;;;6.07;2.50;;;17.90;99.90;;;;;;4938216;29;20190;-77
2023/07/20 07:02:44;;;;;;;8.70;2.30;;;17.90;99.90;;;;;;4939329;29;20176;-77
2023/07/20 07:05:10;;;;;;;7.88;2.55;;;18.00;99.90;;;;;;4939074;29;20490;-78
2023/07/20 07:07:36;;;;;;;4.68;2.30;;;18.00;99.90;;;;;;4939360;29;20258;-77
2023/07/20 07:10:05;;;;;;;4.40;2.20;;;18.00;99.90;;;;;;4939009;29;20680;-80
2023/07/20 07:12:30;;;;;;;6.10;2.03;;;18.00;99.90;;;;;;4939863;29;20322;-78
2023/07/20 07:14:56;;;;;;;6.30;2.10;;;18.10;99.90;;;;;;4922250;29;20305;-77
2023/07/20 07:17:22;;;;;;;5.28;2.40;;;18.20;99.90;;;;;;4939901;29;20259;-78
2023/07/20 07:19:48;;;;;;;6.13;1.80;;;18.30;99.90;;;;;;4937900;29;20183;-77
2023/07/20 07:22:14;;;;;;;3.42;2.10;;;18.30;99.90;;;;;;4937554;29;20176;-76
2023/07/20 07:24:41;;;;;;;6.15;2.50;;;18.40;99.90;;;;;;4922753;29;20191;-76
2023/07/20 07:27:09;;;;;;;7.80;2.40;;;18.50;99.90;;;;;;4939177;29;20188;-79
2023/07/20 07:29:35;;;;;;;4.45;2.15;;;18.50;99.90;;;;;;4939177;29;20211;-77
2023/07/20 07:32:01;;;;;;;8.43;3.03;;;18.60;99.90;;;;;;4938630;29;20239;-77
2023/07/20 07:34:27;;;;;;;8.48;2.30;;;18.70;99.90;;;;;;4938626;29;20190;-77
2023/07/20 07:36:53;;;;;;;7.32;2.47;;;18.90;99.90;;;;;;4938379;29;20223;-79
2023/07/20 07:39:19;;;;;;;6.75;2.10;;;19.00;99.90;;;;;;4921661;29;20172;-78
2023/07/20 07:41:45;;;;;;;7.35;2.40;;;19.10;99.90;;;;;;4938463;29;20266;-77
2023/07/20 07:44:11;;;;;;;9.15;2.35;;;19.20;99.90;;;;;;4938341;29;20175;-77
2023/07/20 07:46:37;;;;;;;7.45;2.30;;;19.10;99.90;;;;;;4938322;29;20178;-77
2023/07/20 07:49:03;;;;;;;6.07;1.95;;;19.20;99.90;;;;;;4939049;29;20211;-76
2023/07/20 07:51:29;;;;;;;7.35;2.28;;;19.10;99.90;;;;;;4938940;29;20191;-77
2023/07/20 07:53:55;;;;;;;8.98;2.30;;;19.00;99.90;;;;;;4938111;29;20179;-78
2023/07/20 07:56:24;;;;;;;4.63;2.00;;;19.00;99.90;;;;;;4938238;29;20612;-77
2023/07/20 07:58:51;;;;;;;8.75;1.90;;;19.00;99.90;;;;;;4936856;29;20243;-78
2023/07/20 08:01:18;;;;;;;5.13;1.70;;;19.00;99.90;;;;;;4939122;29;20183;-75
2023/07/20 08:03:47;;;;;;;8.70;2.33;;;19.10;99.90;;;;;;4921263;29;20190;-80
2023/07/20 08:06:13;;;;;;;3.25;1.70;;;19.20;99.90;;;;;;4937902;29;20217;-78
2023/07/20 08:08:39;;;;;;;2.67;1.70;;;19.30;99.90;;;;;;4937885;29;20219;-78
2023/07/20 08:11:05;;;;;;;5.20;1.50;;;19.30;99.90;;;;;;4937829;29;20262;-77
2023/07/20 08:13:31;;;;;;;5.22;1.63;;;19.50;99.90;;;;;;4937773;29;20179;-78
2023/07/20 08:15:58;;;;;;;7.40;1.80;;;19.60;99.90;;;;;;4938057;29;20207;-80
2023/07/20 08:18:24;;;;;;;6.82;1.90;;;19.80;99.90;;;;;;4937597;29;20180;-77
2023/07/20 08:20:50;;;;;;;5.85;1.75;;;19.90;99.90;;;;;;4937720;29;20180;-77
2023/07/20 08:23:16;;;;;;;4.53;1.40;;;20.00;99.90;;;;;;4937756;29;20198;-76
2023/07/20 08:25:45;;;;;;;8.95;1.50;;;20.00;99.90;;;;;;4936965;29;20179;-77
2023/07/20 08:28:12;;;;;;;5.55;1.75;;;20.00;99.90;;;;;;4921372;29;20647;-79
2023/07/20 08:30:45;;;;;;;4.68;1.60;;;20.00;99.90;;;;;;4936397;29;20313;-79
2023/07/20 08:33:13;;;;;;;3.83;1.33;;;20.00;99.90;;;;;;4920531;29;20184;-78
2023/07/20 08:35:39;;;;;;;2.30;1.10;;;20.00;99.90;;;;;;4937455;29;20175;-78
2023/07/20 08:38:05;;;;;;;3.17;1.13;;;20.10;99.90;;;;;;4936112;29;20724;-77
2023/07/20 08:40:39;;;;;;;6.13;1.70;;;20.10;99.90;;;;;;4920520;29;20187;-77
2023/07/20 08:43:05;;;;;;;9.23;1.50;;;20.30;99.90;;;;;;4936347;29;20175;-82
2023/07/20 08:45:33;;;;;;;7.20;1.35;;;20.40;99.90;;;;;;4937283;29;20520;-83
2023/07/20 08:48:03;;;;;;;4.72;1.17;;;20.50;99.90;;;;;;4936431;29;20226;-78
2023/07/20 08:50:30;;;;;;;4.43;1.40;;;20.60;99.90;;;;;;4936965;29;20280;-79
2023/07/20 08:52:58;;;;;;;4.28;1.00;;;20.70;99.90;;;;;;4937217;29;20642;-80
2023/07/20 08:55:26;;;;;;;8.55;1.15;;;20.70;99.90;;;;;;4920365;29;20262;-77
2023/07/20 08:57:54;;;;;;;2.90;1.20;;;20.80;99.90;;;;;;4936097;29;20586;-78
2023/07/20 09:00:21;;;;;;;3.50;1.00;;;20.90;99.90;;;;;;4935700;29;20184;-77
2023/07/20 09:02:50;;;;;;;2.10;1.15;;;21.10;99.70;;;;;;4936049;29;20190;-78
2023/07/20 09:05:17;;;;;;;3.38;1.10;;;21.10;99.20;;;;;;4936772;29;20206;-78
2023/07/20 09:07:42;;;;;;;7.15;1.20;;;21.30;98.80;;;;;;4920292;29;20628;-80
2023/07/20 09:10:08;;;;;;;3.50;1.13;;;21.40;98.10;;;;;;4936044;29;20302;-78
2023/07/20 09:12:42;;;;;;;2.88;1.10;;;21.40;97.30;;;;;;4904788;29;20188;-78
2023/07/20 09:15:10;;;;;;;3.80;1.30;;;21.50;97.20;;;;;;4936680;29;20197;-78
2023/07/20 09:17:37;;;;;;;4.25;1.00;;;21.60;97.00;;;;;;4935821;29;20242;-78
2023/07/20 09:20:07;;;;;;;6.63;1.50;;;21.70;97.00;;;;;;4935784;29;20183;-80
2023/07/20 09:22:34;;;;;;;5.25;1.05;;;21.90;97.20;;;;;;4937225;29;20175;-79
2023/07/20 09:25:00;;;;;;;3.47;1.10;;;21.90;96.50;;;;;;4937032;29;20171;-78
2023/07/20 09:27:36;;;;;;;3.97;1.00;;;22.10;96.00;;;;;;4937171;29;20279;-78
2023/07/20 09:30:02;;;;;;;3.47;1.00;;;22.20;95.70;;;;;;4935795;28;20206;-79
2023/07/20 09:32:27;;;;;;;5.95;1.17;;;22.30;95.10;;;;;;4935328;29;20254;-78
2023/07/20 09:34:53;;;;;;;3.72;1.00;;;22.30;95.00;;;;;;4935030;29;20547;-79
2023/07/20 09:37:23;;;;;;;4.00;0.93;;;22.30;94.80;;;;;;4919255;29;20279;-79
2023/07/20 09:39:51;;;;;;;2.08;0.90;;;22.30;94.30;;;;;;4934985;29;20184;-78
2023/07/20 09:42:18;;;;;;;1.30;0.80;;;22.20;94.10;;;;;;4919768;29;20262;-80
2023/07/20 09:44:44;;;;;;;4.45;1.08;;;22.10;93.50;;;;;;4920165;29;20505;-78
2023/07/20 09:47:10;;;;;;;5.53;1.33;;;22.10;93.10;;;;;;4936417;29;20179;-77
2023/07/20 09:49:42;;;;;;;5.57;1.00;;;22.10;93.00;;;;;;4936784;29;20663;-77
2023/07/20 09:52:12;;;;;;;5.05;1.75;;;22.10;93.10;;;;;;4934941;29;20191;-77
2023/07/20 09:54:39;;;;;;;5.30;1.20;;;22.20;93.40;;;;;;4936048;29;20199;-77
2023/07/20 09:57:12;;;;;;;2.97;1.00;;;22.30;93.40;;;;;;4935086;29;20193;-78
2023/07/20 09:59:38;;;;;;;3.22;1.10;;;22.40;92.90;;;;;;4935921;29;20167;-78
2023/07/20 10:02:19;;;;;;;3.28;1.13;;;22.40;92.40;;;;;;4936330;29;20189;-79
2023/07/20 10:04:46;;;;;;;3.30;1.17;;;22.40;92.20;;;;;;4935280;29;20242;-78
2023/07/20 10:07:13;;;;;;;3.35;0.90;;;22.30;92.30;;;;;;4936356;29;20176;-77
2023/07/20 10:09:42;;;;;;;2.22;0.88;;;22.30;92.20;;;;;;4936126;29;20218;-76
2023/07/20 10:12:09;;;;;;;4.50;1.00;;;22.30;92.10;;;;;;4936224;29;20239;-80
2023/07/20 10:14:41;;;;;;;6.53;1.08;;;22.40;91.80;;;;;;4919376;29;20185;-78
2023/07/20 10:17:11;;;;;;;6.07;1.05;;;22.40;91.40;;;;;;4936147;29;20166;-76
2023/07/20 10:19:44;;;;;;;1.80;0.85;;;22.60;91.50;;;;;;4935719;29;20561;-78
2023/07/20 10:22:25;;;;;;;5.28;1.13;;;22.70;90.90;;;;;;4935821;29;20219;-80
2023/07/20 10:24:53;;;;;;;5.18;1.20;;;22.70;90.70;;;;;;4935922;29;20171;-77
2023/07/20 10:27:20;;;;;;;3.13;1.00;;;22.70;90.40;;;;;;4937357;29;20190;-78
2023/07/20 10:29:48;;;;;;;5.03;1.00;;;22.50;89.70;;;;;;4940197;29;20257;-79
2023/07/20 10:32:13;;;;;;;2.08;0.90;;;22.40;89.70;;;;;;4938757;29;20187;-76
2023/07/20 10:34:39;;;;;;;4.35;1.00;;;22.40;90.00;;;;;;4922788;29;20355;-77
2023/07/20 10:37:06;;;;;;;6.18;1.20;;;22.40;90.00;;;;;;4939085;28;20699;-76
2023/07/20 10:39:33;;;;;;;2.67;1.08;;;22.40;89.80;;;;;;4938102;29;20278;-77
2023/07/20 10:42:03;;;;;;;3.97;1.80;;;22.40;89.50;;;;;;4938556;29;20271;-77
2023/07/20 10:44:29;;;;;;;2.40;0.93;;;22.50;89.70;;;;;;4938405;29;20262;-79
2023/07/20 10:47:08;;;;;;;4.60;1.38;;;22.50;88.00;;;;;;4937124;29;20232;-77
2023/07/20 10:49:35;;;;;;;4.45;1.00;;;22.50;87.20;;;;;;4938900;29;20298;-76
2023/07/20 10:52:05;;;;;;;4.78;1.00;;;22.50;87.10;;;;;;4937421;29;20199;-78
2023/07/20 10:54:30;;;;;;;1.92;1.00;;;22.60;86.90;;;;;;4937929;29;20179;-77
2023/07/20 10:57:04;;;;;;;2.72;1.00;;;22.60;86.70;;;;;;4938438;29;20186;-77
2023/07/20 10:59:29;;;;;;;2.65;1.10;;;22.60;86.50;;;;;;4938422;29;20175;-80
2023/07/20 11:01:59;;;;;;;4.03;1.10;;;22.50;86.40;;;;;;4938173;29;20199;-78
2023/07/20 11:04:42;;;;;;;8.15;1.30;;;22.50;86.00;;;;;;4938222;29;20196;-77
2023/07/20 11:07:08;;;;;;;3.30;1.02;;;22.40;86.70;;;;;;4938158;29;20183;-78
2023/07/20 11:09:38;;;;;;;2.33;0.88;;;22.50;86.70;;;;;;4936622;29;20239;-78
2023/07/20 11:12:11;;;;;;;1.75;0.80;;;22.60;85.70;;;;;;4937240;29;20183;-78
2023/07/20 11:14:41;;;;;;;1.67;1.05;;;22.60;85.60;;;;;;4937568;29;20198;-77
2023/07/20 11:17:15;;;;;;;2.05;0.82;;;22.70;85.60;;;;;;4937648;29;20262;-77
2023/07/20 11:19:41;;;;;;;3.35;1.15;;;22.90;84.90;;;;;;4936444;29;20189;-78
2023/07/20 11:22:09;;;;;;;4.32;1.05;;;23.00;84.20;;;;;;4920868;29;20550;-77
2023/07/20 11:24:38;;;;;;;2.10;1.10;;;23.20;83.30;;;;;;4937613;29;20179;-78
2023/07/20 11:27:04;;;;;;;4.60;1.10;;;23.40;82.60;;;;;;4936515;28;20192;-79
2023/07/20 11:29:29;;;;;;;3.67;0.82;;;23.50;82.10;;;;;;4936433;29;20224;-77
2023/07/20 11:31:57;;;;;;;3.22;1.20;;;23.60;81.40;;;;;;4936557;29;20201;-77
2023/07/20 11:34:22;;;;;;;3.20;0.90;;;23.60;80.80;;;;;;4936466;29;20545;-77
2023/07/20 11:36:50;;;;;;;4.43;1.00;;;23.60;80.90;;;;;;4898465;29;1114497;-78
2023/07/20 11:39:20;;;;;;;2.42;0.90;;;23.80;80.70;;;;;;4938152;29;20180;-78
2023/07/20 11:41:57;;;;;;;4.35;1.10;;;23.90;80.70;;;;;;4937307;29;20190;-77
2023/07/20 11:44:28;;;;;;;3.85;1.10;;;23.90;78.90;;;;;;4939082;29;20270;-79
2023/07/20 11:47:05;;;;;;;2.72;1.02;;;23.80;78.10;;;;;;4939552;29;20178;-77
2023/07/20 11:49:36;;;;;;;4.57;0.90;;;23.80;78.40;;;;;;4938440;29;20226;-76
2023/07/20 11:52:03;;;;;;;3.28;1.02;;;23.80;79.20;;;;;;4938847;29;20195;-79
2023/07/20 11:54:29;;;;;;;2.15;1.00;;;23.80;78.80;;;;;;4937133;29;20250;-78
2023/07/20 11:56:57;;;;;;;2.55;0.80;;;23.80;78.50;;;;;;4938873;29;20211;-78
2023/07/20 11:59:24;;;;;;;2.83;1.05;;;23.70;78.30;;;;;;4938850;29;20242;-78
2023/07/20 12:01:49;;;;;;;1.70;0.90;;;23.60;78.40;;;;;;4922071;29;20187;-77
2023/07/20 12:04:15;;;;;;;2.83;1.15;;;23.60;78.40;;;;;;4939959;29;20175;-77
2023/07/20 12:06:41;;;;;;;7.10;1.15;;;23.60;78.30;;;;;;4940934;29;20179;-77
2023/07/20 12:09:14;;;;;;;3.08;1.10;;;23.50;77.80;;;;;;4940165;29;20691;-81
2023/07/20 12:11:42;;;;;;;4.75;0.98;;;23.60;78.30;;;;;;4942243;28;20194;-78
2023/07/20 12:14:09;;;;;;;4.93;1.35;;;23.60;78.50;;;;;;4944812;29;20187;-80
2023/07/20 12:16:37;;;;;;;2.42;0.85;;;23.70;78.20;;;;;;4944422;29;20327;-79
2023/07/20 12:19:12;;;;;;;4.13;1.20;;;23.60;77.60;;;;;;4943608;29;20210;-78
2023/07/20 12:21:44;;;;;;;4.55;1.10;;;23.50;77.50;;;;;;4943959;29;20262;-79
2023/07/20 12:24:11;;;;;;;2.28;1.00;;;23.50;77.70;;;;;;4943624;29;20624;-78
2023/07/20 12:26:37;;;;;;;2.30;1.20;;;23.40;78.00;;;;;;4927565;29;20188;-78
2023/07/20 12:29:03;;;;;;;5.32;1.40;;;23.30;78.00;;;;;;4941537;29;20207;-78
2023/07/20 12:31:30;;;;;;;4.57;1.15;;;23.20;78.00;;;;;;4939810;29;20243;-78
2023/07/20 12:33:57;;;;;;;1.95;0.90;;;23.00;78.60;;;;;;4940506;29;20270;-79
2023/07/20 12:36:24;;;;;;;3.67;0.90;;;23.00;79.00;;;;;;4938386;29;20182;-79
2023/07/20 12:38:50;;;;;;;3.05;1.10;;;22.90;79.20;;;;;;4937659;29;20164;-77
2023/07/20 12:41:16;;;;;;;2.17;0.90;;;22.90;79.30;;;;;;4937927;29;20183;-77
2023/07/20 12:43:46;;;;;;;4.25;1.00;;;22.80;79.20;;;;;;4936821;29;20235;-78
2023/07/20 12:46:13;;;;;;;1.30;1.00;;;22.80;79.90;;;;;;4936827;29;20211;-79
2023/07/20 12:48:41;;;;;;;3.00;0.98;;;22.70;80.60;;;;;;4937541;29;20273;-77